Time;durP1;ratioP1;P1;durP2;ratioP2;P2;SDS_P1;SDS_P2;PMS_P1;PMS_P2;Temp;Humidity;BMP_temperature;BMP_pressure;BME280_temperature;BME280_humidity;BME280_pressure;Samples;Min_cycle;Max_cycle;Signal;HPM_P1;HPM_P2
2023/08/27 00:01:56;;;;;;;22.88;21.02;;;12.70;99.90;;;;;;6157601;23;20397;-77
2023/08/27 00:04:21;;;;;;;26.35;24.25;;;12.70;99.90;;;;;;6158704;23;20016;-77
2023/08/27 00:06:47;;;;;;;23.88;21.80;;;12.70;99.90;;;;;;6158676;23;20505;-76
2023/08/27 00:09:13;;;;;;;22.58;20.63;;;12.60;99.90;;;;;;6182884;23;20017;-77
2023/08/27 00:11:38;;;;;;;20.90;19.27;;;12.60;99.90;;;;;;6157676;23;20349;-76
2023/08/27 00:14:04;;;;;;;29.38;26.88;;;12.60;99.90;;;;;;6182592;23;20024;-76
2023/08/27 00:16:30;;;;;;;23.58;21.73;;;12.50;99.90;;;;;;6158282;23;20083;-77
2023/08/27 00:18:55;;;;;;;26.08;23.73;;;12.50;99.90;;;;;;6158002;23;20092;-76
2023/08/27 00:21:21;;;;;;;37.70;33.65;;;12.50;99.90;;;;;;6158474;23;20341;-77
2023/08/27 00:23:47;;;;;;;29.83;27.40;;;12.40;99.90;;;;;;6158038;23;20059;-77
2023/08/27 00:26:12;;;;;;;25.10;23.20;;;12.50;99.90;;;;;;6157367;23;20059;-76
2023/08/27 00:28:38;;;;;;;27.58;25.38;;;12.50;99.90;;;;;;6157686;23;20020;-76
2023/08/27 00:31:04;;;;;;;26.08;24.13;;;12.50;99.90;;;;;;6158366;23;20015;-77
2023/08/27 00:33:30;;;;;;;33.03;30.25;;;12.50;99.90;;;;;;6157894;23;20397;-77
2023/08/27 00:35:56;;;;;;;27.98;25.83;;;12.50;99.90;;;;;;6158171;23;20009;-76
2023/08/27 00:38:21;;;;;;;31.65;28.95;;;12.50;99.90;;;;;;6157250;23;20475;-76
2023/08/27 00:40:47;;;;;;;29.55;27.33;;;12.60;99.90;;;;;;6157851;23;20453;-77
2023/08/27 00:43:13;;;;;;;33.85;31.10;;;12.60;99.90;;;;;;6133442;23;20009;-77
2023/08/27 00:45:39;;;;;;;35.20;32.33;;;12.70;99.90;;;;;;6158196;23;20460;-77
2023/08/27 00:48:05;;;;;;;28.08;26.08;;;12.70;99.90;;;;;;6133293;23;20020;-76
2023/08/27 00:50:31;;;;;;;36.42;33.30;;;12.80;99.90;;;;;;6157359;23;20017;-76
2023/08/27 00:52:57;;;;;;;31.08;28.50;;;12.80;99.90;;;;;;6157368;23;20021;-76
2023/08/27 00:55:23;;;;;;;31.50;28.83;;;12.90;99.90;;;;;;6133359;23;20017;-77
2023/08/27 00:57:49;;;;;;;25.60;23.58;;;12.90;99.90;;;;;;6133146;23;20020;-76
2023/08/27 01:00:16;;;;;;;25.45;23.50;;;12.90;99.90;;;;;;6157699;23;20457;-77
2023/08/27 01:02:44;;;;;;;25.40;23.42;;;12.90;99.90;;;;;;6157640;23;20020;-77
2023/08/27 01:05:12;;;;;;;27.38;25.13;;;12.90;99.90;;;;;;6157588;23;20013;-76
2023/08/27 01:08:25;;;;;;;29.13;26.70;;;12.90;99.90;;;;;;6133031;23;20024;-77
2023/08/27 01:11:05;;;;;;;26.10;24.00;;;12.90;99.90;;;;;;6068921;23;20021;-77
2023/08/27 01:13:47;;;;;;;26.45;24.45;;;12.90;99.90;;;;;;6132869;23;20045;-77
2023/08/27 01:16:15;;;;;;;32.42;29.88;;;12.90;99.90;;;;;;6156262;23;20067;-76
2023/08/27 01:18:41;;;;;;;30.38;27.90;;;12.90;99.90;;;;;;6157478;23;20397;-76
2023/08/27 01:21:23;;;;;;;31.42;28.77;;;12.90;99.90;;;;;;6182449;23;20079;-77
2023/08/27 01:23:49;;;;;;;25.45;23.45;;;12.90;99.90;;;;;;6157302;23;20009;-77
2023/08/27 01:26:37;;;;;;;29.15;26.73;;;12.90;99.90;;;;;;6156706;23;20063;-77
2023/08/27 01:29:29;;;;;;;29.38;26.85;;;12.90;99.90;;;;;;6182334;23;20338;-77
2023/08/27 01:32:24;;;;;;;24.35;22.48;;;12.80;99.90;;;;;;6157789;23;20010;-76
2023/08/27 01:34:52;;;;;;;39.63;35.63;;;12.80;99.90;;;;;;6157673;23;20330;-76
2023/08/27 01:37:19;;;;;;;26.55;24.48;;;12.70;99.90;;;;;;6157136;23;20024;-76
2023/08/27 01:39:44;;;;;;;25.77;23.58;;;12.70;99.90;;;;;;6157096;23;20019;-76
2023/08/27 01:42:11;;;;;;;26.30;24.30;;;12.70;99.90;;;;;;6156880;23;20338;-77
2023/08/27 01:44:37;;;;;;;25.25;23.25;;;12.60;99.90;;;;;;6132875;23;20009;-77
2023/08/27 01:47:03;;;;;;;24.20;22.20;;;12.60;99.90;;;;;;6157744;23;20342;-77
2023/08/27 01:49:29;;;;;;;25.17;23.25;;;12.60;99.90;;;;;;6156960;23;20020;-76
2023/08/27 01:51:54;;;;;;;27.55;25.42;;;12.60;99.90;;;;;;6182187;23;20012;-76
2023/08/27 01:54:20;;;;;;;30.17;27.85;;;12.50;99.90;;;;;;6156678;23;20468;-76
2023/08/27 01:56:46;;;;;;;37.45;33.60;;;12.50;99.90;;;;;;6157410;23;20035;-76
2023/08/27 01:59:11;;;;;;;27.98;25.73;;;12.50;99.90;;;;;;6181668;23;20013;-76
2023/08/27 02:01:37;;;;;;;30.25;27.75;;;12.50;99.90;;;;;;6157041;23;20020;-76
2023/08/27 02:04:03;;;;;;;28.23;26.17;;;12.50;99.90;;;;;;6157778;23;20473;-76
2023/08/27 02:06:29;;;;;;;28.95;26.77;;;12.40;99.90;;;;;;6157517;23;20041;-76
2023/08/27 02:08:55;;;;;;;29.80;27.55;;;12.40;99.90;;;;;;6156099;23;20405;-77
2023/08/27 02:11:21;;;;;;;27.75;25.67;;;12.40;99.90;;;;;;6181908;23;20013;-76
2023/08/27 02:13:47;;;;;;;27.65;25.55;;;12.40;99.90;;;;;;6157505;23;20092;-76
2023/08/27 02:16:12;;;;;;;36.58;33.35;;;12.30;99.90;;;;;;6157232;23;20020;-76
2023/08/27 02:18:38;;;;;;;40.55;35.72;;;12.30;99.90;;;;;;6181695;23;20032;-76
2023/08/27 02:21:03;;;;;;;32.67;29.92;;;12.40;99.90;;;;;;6156770;23;20350;-76
2023/08/27 02:23:29;;;;;;;29.15;26.95;;;12.40;99.90;;;;;;6157589;23;20017;-76
2023/08/27 02:25:54;;;;;;;32.42;29.92;;;12.30;99.90;;;;;;6156947;23;20036;-76
2023/08/27 02:28:20;;;;;;;29.25;26.95;;;12.30;99.90;;;;;;6157364;23;20083;-77
2023/08/27 02:30:55;;;;;;;34.63;31.50;;;12.30;99.90;;;;;;6181360;23;20087;-76
2023/08/27 02:33:22;;;;;;;31.15;28.73;;;12.30;99.90;;;;;;6157248;23;20092;-76
2023/08/27 02:35:47;;;;;;;31.98;29.48;;;12.30;99.90;;;;;;6157404;23;20052;-76
2023/08/27 02:38:13;;;;;;;29.42;27.23;;;12.30;99.90;;;;;;6156653;23;20013;-76
2023/08/27 02:40:40;;;;;;;41.22;37.10;;;12.30;99.90;;;;;;6181900;23;20286;-76
2023/08/27 02:43:05;;;;;;;39.92;36.28;;;12.30;99.90;;;;;;6157424;23;20013;-76
2023/08/27 02:45:31;;;;;;;35.70;32.60;;;12.30;99.90;;;;;;6157034;23;20005;-76
2023/08/27 02:47:57;;;;;;;31.90;29.23;;;12.30;99.90;;;;;;6156639;23;20025;-77
2023/08/27 02:50:22;;;;;;;37.40;34.08;;;12.30;99.90;;;;;;6157178;23;20357;-76
2023/08/27 02:52:48;;;;;;;34.03;31.35;;;12.40;99.90;;;;;;6132886;23;20362;-76
2023/08/27 02:55:13;;;;;;;33.20;30.50;;;12.40;99.90;;;;;;6157583;23;20017;-77
2023/08/27 02:57:39;;;;;;;37.67;34.33;;;12.50;99.90;;;;;;6181774;23;20013;-76
2023/08/27 03:00:06;;;;;;;38.13;34.78;;;12.50;99.90;;;;;;6156112;23;20017;-76
2023/08/27 03:02:31;;;;;;;34.25;31.48;;;12.50;99.90;;;;;;6156795;23;20005;-76
2023/08/27 03:05:01;;;;;;;34.28;31.48;;;12.60;99.90;;;;;;6181764;23;20092;-77
2023/08/27 03:07:26;;;;;;;33.88;30.92;;;12.60;99.90;;;;;;6132379;23;20013;-76
2023/08/27 03:09:52;;;;;;;54.15;45.65;;;12.60;99.90;;;;;;6156733;23;20084;-77
2023/08/27 03:12:18;;;;;;;41.28;37.13;;;12.60;99.90;;;;;;6157301;23;20092;-77
2023/08/27 03:14:43;;;;;;;35.85;32.83;;;12.70;99.90;;;;;;6157020;23;20446;-77
2023/08/27 03:17:09;;;;;;;40.05;36.40;;;12.70;99.90;;;;;;6156509;23;20044;-77
2023/08/27 03:19:35;;;;;;;46.42;41.67;;;12.70;99.90;;;;;;6157734;23;20442;-77
2023/08/27 03:22:01;;;;;;;31.38;28.90;;;12.70;99.90;;;;;;6159022;23;20091;-77
2023/08/27 03:24:26;;;;;;;28.98;26.73;;;12.70;99.90;;;;;;6183520;23;20557;-77
2023/08/27 03:26:52;;;;;;;29.48;27.17;;;12.70;99.90;;;;;;6158483;23;20013;-77
2023/08/27 03:29:18;;;;;;;35.38;32.47;;;12.70;99.90;;;;;;6158288;23;20405;-76
2023/08/27 03:31:43;;;;;;;29.48;27.17;;;12.80;99.90;;;;;;6158933;23;20048;-76
2023/08/27 03:34:09;;;;;;;29.13;26.75;;;12.80;99.90;;;;;;6158560;23;20461;-76
2023/08/27 03:36:35;;;;;;;29.45;27.05;;;12.80;99.90;;;;;;6158573;23;20020;-76
2023/08/27 03:39:01;;;;;;;32.33;29.63;;;12.80;99.90;;;;;;6157817;23;20016;-76
2023/08/27 03:41:26;;;;;;;36.78;33.28;;;12.80;99.90;;;;;;6158644;23;20407;-77
2023/08/27 03:43:52;;;;;;;38.78;34.03;;;12.80;99.90;;;;;;6158832;23;20520;-76
2023/08/27 03:46:18;;;;;;;41.60;37.38;;;12.70;99.90;;;;;;6158753;23;20051;-76
2023/08/27 03:48:43;;;;;;;32.08;29.05;;;12.70;99.90;;;;;;6158593;23;20013;-77
2023/08/27 03:51:09;;;;;;;25.85;23.90;;;12.70;99.90;;;;;;6157242;23;20012;-77
2023/08/27 03:53:36;;;;;;;30.42;27.88;;;12.70;99.90;;;;;;6158705;23;20051;-77
2023/08/27 03:56:03;;;;;;;33.17;30.08;;;12.60;99.90;;;;;;6158690;23;20378;-77
2023/08/27 03:58:28;;;;;;;29.55;27.02;;;12.60;99.90;;;;;;6158092;23;20017;-77
2023/08/27 04:00:54;;;;;;;29.88;27.38;;;12.60;99.90;;;;;;6158436;23;20009;-76
2023/08/27 04:03:20;;;;;;;35.60;32.17;;;12.60;99.90;;;;;;6183527;23;20010;-76
2023/08/27 04:05:49;;;;;;;27.05;24.88;;;12.50;99.90;;;;;;6157637;23;20095;-77
2023/08/27 04:08:15;;;;;;;27.08;25.08;;;12.50;99.90;;;;;;6157679;23;20013;-76
2023/08/27 04:10:53;;;;;;;24.42;22.55;;;12.50;99.90;;;;;;6158032;23;20522;-76
2023/08/27 04:13:19;;;;;;;26.50;24.45;;;12.40;99.90;;;;;;6134025;23;20080;-76
2023/08/27 04:15:59;;;;;;;26.02;24.02;;;12.40;99.90;;;;;;6158298;23;20064;-76
2023/08/27 04:18:26;;;;;;;26.10;24.20;;;12.40;99.90;;;;;;6157652;23;20204;-76
2023/08/27 04:20:51;;;;;;;29.42;27.00;;;12.40;99.90;;;;;;6157893;23;20462;-76
2023/08/27 04:23:17;;;;;;;29.60;27.25;;;12.40;99.90;;;;;;6158507;23;20028;-76
2023/08/27 04:25:46;;;;;;;23.38;21.65;;;12.40;99.90;;;;;;6158274;23;20052;-76
2023/08/27 04:28:12;;;;;;;26.70;24.60;;;12.40;99.90;;;;;;6157631;23;20013;-76
2023/08/27 04:30:38;;;;;;;33.08;29.95;;;12.40;99.90;;;;;;6157588;23;20017;-76
2023/08/27 04:33:05;;;;;;;25.95;23.85;;;12.40;99.90;;;;;;6158356;23;20104;-77
2023/08/27 04:35:31;;;;;;;25.80;23.60;;;12.30;99.90;;;;;;6158048;23;20009;-76
2023/08/27 04:37:57;;;;;;;33.65;30.35;;;12.40;99.90;;;;;;6133146;23;20111;-77
2023/08/27 04:40:22;;;;;;;28.30;26.08;;;12.40;99.90;;;;;;6157777;23;20580;-77
2023/08/27 04:42:48;;;;;;;31.80;29.05;;;12.40;99.90;;;;;;6158125;23;20016;-76
2023/08/27 04:45:14;;;;;;;31.40;28.58;;;12.40;99.90;;;;;;6157669;23;20009;-75
2023/08/27 04:47:41;;;;;;;35.15;31.95;;;12.50;99.90;;;;;;6157877;23;20013;-76
2023/08/27 04:50:07;;;;;;;32.33;29.67;;;12.50;99.90;;;;;;6157663;23;20017;-76
2023/08/27 04:52:34;;;;;;;34.35;31.20;;;12.60;99.90;;;;;;6158204;23;20470;-76
2023/08/27 04:55:00;;;;;;;38.63;34.03;;;12.60;99.90;;;;;;6157765;23;20021;-77
2023/08/27 04:57:26;;;;;;;28.23;25.58;;;12.70;99.90;;;;;;6156078;23;20008;-77
2023/08/27 04:59:54;;;;;;;23.67;21.77;;;12.70;99.90;;;;;;6157068;23;20084;-76
2023/08/27 05:02:19;;;;;;;26.40;24.17;;;12.80;99.90;;;;;;6133513;23;20009;-77
2023/08/27 05:04:45;;;;;;;25.23;23.02;;;12.90;99.90;;;;;;6157364;23;20390;-75
2023/08/27 05:07:11;;;;;;;23.73;21.67;;;12.90;99.90;;;;;;6157662;23;20051;-76
2023/08/27 05:09:37;;;;;;;22.98;20.73;;;13.10;99.90;;;;;;6157562;23;20017;-76
2023/08/27 05:12:03;;;;;;;19.92;18.20;;;13.10;99.90;;;;;;6156903;23;20013;-76
2023/08/27 05:14:28;;;;;;;22.80;20.88;;;13.20;99.90;;;;;;6157709;23;20449;-76
2023/08/27 05:16:54;;;;;;;26.98;24.40;;;13.30;99.90;;;;;;6182064;23;20044;-76
2023/08/27 05:19:20;;;;;;;23.08;20.90;;;13.30;99.90;;;;;;6156908;23;20064;-76
2023/08/27 05:21:45;;;;;;;26.30;23.80;;;13.30;99.90;;;;;;6182134;23;20028;-75
2023/08/27 05:24:11;;;;;;;22.95;20.85;;;13.40;99.90;;;;;;6157985;23;20079;-76
2023/08/27 05:26:37;;;;;;;27.10;24.50;;;13.40;99.90;;;;;;6157091;23;20013;-76
2023/08/27 05:29:04;;;;;;;27.33;24.33;;;13.50;99.90;;;;;;6132055;23;20059;-76
2023/08/27 05:31:29;;;;;;;24.92;22.67;;;13.50;99.90;;;;;;6157856;23;20017;-76
2023/08/27 05:33:55;;;;;;;25.63;22.88;;;13.60;99.90;;;;;;6157321;23;20024;-77
2023/08/27 05:36:21;;;;;;;25.65;22.35;;;13.60;99.90;;;;;;6154726;23;20009;-76
2023/08/27 05:38:48;;;;;;;29.00;23.88;;;13.60;99.90;;;;;;6154482;23;20012;-76
2023/08/27 05:41:13;;;;;;;24.02;21.75;;;13.60;99.90;;;;;;6157465;23;20015;-76
2023/08/27 05:43:41;;;;;;;23.20;20.90;;;13.60;99.90;;;;;;6156641;23;20009;-76
2023/08/27 05:46:07;;;;;;;22.30;19.98;;;13.60;99.90;;;;;;6155482;23;20083;-76
2023/08/27 05:48:32;;;;;;;39.00;25.23;;;13.60;99.90;;;;;;6154902;23;20047;-76
2023/08/27 05:51:03;;;;;;;28.23;22.77;;;13.60;99.90;;;;;;6157699;23;20307;-77
2023/08/27 05:53:28;;;;;;;22.27;20.02;;;13.60;99.90;;;;;;6156738;23;20083;-77
2023/08/27 05:55:54;;;;;;;26.23;23.50;;;13.60;99.90;;;;;;6157174;23;20454;-77
2023/08/27 05:58:19;;;;;;;22.50;19.90;;;13.60;99.90;;;;;;6156737;23;20354;-77
2023/08/27 06:00:45;;;;;;;15.52;13.90;;;13.60;99.90;;;;;;6181854;23;20016;-77
2023/08/27 06:03:11;;;;;;;24.60;22.08;;;13.60;99.90;;;;;;6156309;23;20052;-77
2023/08/27 06:05:36;;;;;;;21.48;19.20;;;13.70;99.90;;;;;;6157703;23;20013;-77
2023/08/27 06:08:03;;;;;;;18.08;16.40;;;13.60;99.90;;;;;;6156369;23;20020;-77
2023/08/27 06:10:30;;;;;;;19.77;17.33;;;13.60;99.90;;;;;;6157129;23;20020;-77
2023/08/27 06:12:57;;;;;;;20.08;18.00;;;13.60;99.90;;;;;;6131913;23;20024;-76
2023/08/27 06:15:24;;;;;;;37.35;25.27;;;13.60;99.90;;;;;;6158273;23;20012;-79
2023/08/27 06:17:49;;;;;;;18.08;15.38;;;13.60;99.90;;;;;;6157508;23;20009;-79
2023/08/27 06:20:15;;;;;;;20.05;17.27;;;13.60;99.90;;;;;;6158459;23;20472;-79
2023/08/27 06:22:40;;;;;;;19.08;16.48;;;13.60;99.90;;;;;;6157191;23;20020;-79
2023/08/27 06:25:07;;;;;;;24.23;18.88;;;13.60;99.90;;;;;;6157536;23;20020;-79
2023/08/27 06:27:33;;;;;;;19.55;17.45;;;13.60;99.90;;;;;;6155309;23;20323;-79
2023/08/27 06:29:58;;;;;;;20.25;18.23;;;13.60;99.90;;;;;;6132410;23;20020;-79
2023/08/27 06:32:26;;;;;;;24.23;21.67;;;13.60;99.90;;;;;;6157713;23;20009;-78
2023/08/27 06:34:52;;;;;;;19.73;16.80;;;13.60;99.90;;;;;;6158406;23;20418;-79
2023/08/27 06:37:18;;;;;;;13.30;11.98;;;13.60;99.90;;;;;;6158134;23;20017;-79
2023/08/27 06:39:43;;;;;;;15.60;13.98;;;13.70;99.90;;;;;;6157991;23;20009;-79
2023/08/27 06:42:09;;;;;;;14.93;13.52;;;13.70;99.90;;;;;;6183476;23;20016;-79
2023/08/27 06:44:35;;;;;;;18.58;15.75;;;13.70;99.90;;;;;;6134101;23;20080;-79
2023/08/27 06:47:00;;;;;;;14.98;13.32;;;13.70;99.90;;;;;;6158118;23;20044;-80
2023/08/27 06:49:26;;;;;;;20.83;18.10;;;13.70;99.90;;;;;;6158238;23;20446;-78
2023/08/27 06:51:51;;;;;;;14.00;12.57;;;13.90;99.90;;;;;;6157786;23;20331;-79
2023/08/27 06:54:17;;;;;;;16.08;14.40;;;13.90;99.90;;;;;;6159374;23;20016;-80
2023/08/27 06:56:43;;;;;;;15.07;13.70;;;14.00;99.90;;;;;;6160599;23;20069;-80
2023/08/27 06:59:10;;;;;;;15.40;13.90;;;14.00;99.90;;;;;;6134659;23;20009;-79
2023/08/27 07:01:36;;;;;;;14.55;13.07;;;14.10;99.90;;;;;;6159978;23;20084;-80
2023/08/27 07:04:03;;;;;;;11.25;10.27;;;14.10;99.90;;;;;;6160851;23;20009;-80
2023/08/27 07:06:30;;;;;;;14.52;13.07;;;14.20;99.90;;;;;;6161881;23;20011;-80
2023/08/27 07:08:55;;;;;;;11.57;10.48;;;14.20;99.90;;;;;;6135318;23;20089;-78
2023/08/27 07:11:21;;;;;;;11.82;10.65;;;14.30;99.90;;;;;;6158867;23;20041;-77
2023/08/27 07:13:48;;;;;;;12.25;11.10;;;14.30;99.90;;;;;;6160594;23;20454;-78
2023/08/27 07:16:14;;;;;;;14.63;13.23;;;14.40;99.90;;;;;;6158794;23;20020;-79
2023/08/27 07:18:40;;;;;;;14.85;13.45;;;14.40;99.90;;;;;;6134123;23;20013;-83
2023/08/27 07:21:06;;;;;;;10.70;9.52;;;14.50;99.90;;;;;;6159252;23;20092;-82
2023/08/27 07:23:31;;;;;;;11.63;10.52;;;14.60;99.90;;;;;;6183696;23;20011;-82
2023/08/27 07:25:57;;;;;;;13.80;12.50;;;14.60;99.90;;;;;;6159531;23;20027;-82
2023/08/27 07:28:23;;;;;;;9.60;8.70;;;14.60;99.90;;;;;;6134080;23;20076;-82
2023/08/27 07:30:50;;;;;;;8.00;7.28;;;14.50;99.90;;;;;;6134199;23;20017;-82
2023/08/27 07:33:16;;;;;;;10.93;9.80;;;14.40;99.90;;;;;;6184084;23;20029;-82
2023/08/27 07:35:43;;;;;;;9.50;8.52;;;14.50;99.90;;;;;;6159460;23;20013;-82
2023/08/27 07:38:08;;;;;;;10.65;9.65;;;14.40;99.90;;;;;;6133793;23;20009;-82
2023/08/27 07:40:38;;;;;;;11.38;10.32;;;14.60;99.90;;;;;;6133863;23;20082;-80
2023/08/27 07:43:04;;;;;;;9.35;8.32;;;14.50;99.90;;;;;;6158569;23;20015;-81
2023/08/27 07:45:30;;;;;;;9.25;8.32;;;14.50;99.90;;;;;;6159286;23;20084;-82
2023/08/27 07:47:55;;;;;;;11.00;9.52;;;14.60;99.90;;;;;;6183133;23;20470;-82
2023/08/27 07:50:21;;;;;;;10.27;9.30;;;14.70;99.90;;;;;;6158891;23;20013;-82
2023/08/27 07:52:47;;;;;;;11.68;10.65;;;14.70;99.90;;;;;;6158956;23;20024;-82
2023/08/27 07:55:12;;;;;;;10.48;9.57;;;14.70;99.90;;;;;;6159922;23;20013;-80
2023/08/27 07:57:38;;;;;;;12.77;11.20;;;14.80;99.90;;;;;;6184512;23;20092;-82
2023/08/27 08:00:04;;;;;;;8.32;7.57;;;14.80;99.90;;;;;;6135741;23;20005;-83
2023/08/27 08:02:29;;;;;;;13.60;12.20;;;14.90;99.90;;;;;;6159457;23;20465;-83
2023/08/27 08:04:55;;;;;;;10.75;9.75;;;15.00;99.90;;;;;;6159889;23;20040;-84
2023/08/27 08:07:21;;;;;;;9.15;8.27;;;15.00;99.90;;;;;;6136823;23;20009;-83
2023/08/27 08:09:46;;;;;;;11.93;10.38;;;15.10;99.90;;;;;;6134748;23;20515;-83
2023/08/27 08:12:12;;;;;;;12.50;10.70;;;15.20;99.90;;;;;;6184379;23;20148;-84
2023/08/27 08:14:38;;;;;;;10.20;9.30;;;15.30;99.90;;;;;;6160207;23;20024;-83
2023/08/27 08:17:04;;;;;;;9.85;8.93;;;15.40;99.90;;;;;;6159968;23;20532;-83
2023/08/27 08:19:29;;;;;;;10.80;9.88;;;15.50;99.90;;;;;;6160538;23;20030;-83
2023/08/27 08:21:55;;;;;;;10.90;9.90;;;15.50;99.90;;;;;;6158197;23;20079;-82
2023/08/27 08:24:20;;;;;;;10.60;9.50;;;15.70;99.90;;;;;;6158815;23;20469;-83
2023/08/27 08:26:49;;;;;;;8.23;7.43;;;15.80;99.90;;;;;;6183826;23;20033;-84
2023/08/27 08:29:15;;;;;;;11.70;9.98;;;15.90;99.90;;;;;;6132841;23;20013;-81
2023/08/27 08:31:40;;;;;;;8.50;7.75;;;16.00;99.90;;;;;;6134274;23;20020;-80
2023/08/27 08:34:06;;;;;;;7.88;7.18;;;16.30;99.90;;;;;;6158582;23;20047;-80
2023/08/27 08:36:33;;;;;;;8.55;7.75;;;17.00;99.90;;;;;;6157785;23;20030;-80
2023/08/27 08:38:58;;;;;;;8.52;6.97;;;17.60;99.90;;;;;;6157447;23;20020;-81
2023/08/27 08:41:28;;;;;;;9.38;8.55;;;18.20;99.90;;;;;;6133399;23;20013;-78
2023/08/27 08:44:24;;;;;;;7.63;6.80;;;18.60;99.90;;;;;;6158675;23;20490;-78
2023/08/27 08:46:51;;;;;;;8.48;7.47;;;19.00;99.90;;;;;;6113591;23;20013;-81
2023/08/27 08:49:21;;;;;;;8.23;7.43;;;19.20;99.90;;;;;;6133465;23;20394;-82
2023/08/27 08:51:49;;;;;;;9.77;8.90;;;19.60;99.90;;;;;;6158769;23;20013;-83
2023/08/27 08:54:21;;;;;;;10.07;9.07;;;20.00;99.90;;;;;;6183334;23;20059;-81
2023/08/27 08:56:52;;;;;;;10.13;9.23;;;20.40;99.90;;;;;;6158791;23;20009;-80
2023/08/27 08:59:19;;;;;;;10.77;9.88;;;20.80;99.90;;;;;;6159124;23;20088;-81
2023/08/27 09:01:45;;;;;;;9.85;8.95;;;21.10;99.90;;;;;;6159015;23;20005;-83
2023/08/27 09:04:15;;;;;;;9.23;8.32;;;21.30;99.90;;;;;;6133863;23;20009;-81
2023/08/27 09:06:42;;;;;;;9.77;8.68;;;21.30;99.90;;;;;;6134412;23;20012;-81
2023/08/27 09:09:09;;;;;;;8.98;8.07;;;21.40;99.90;;;;;;6133489;23;20071;-80
2023/08/27 09:11:36;;;;;;;9.13;7.47;;;21.60;99.90;;;;;;6159238;23;20521;-78
2023/08/27 09:14:03;;;;;;;7.72;6.95;;;21.90;99.90;;;;;;6158912;23;20017;-78
2023/08/27 09:16:29;;;;;;;7.32;6.22;;;22.10;99.90;;;;;;6156970;23;20365;-78
2023/08/27 09:18:56;;;;;;;7.32;6.03;;;22.20;99.90;;;;;;6158752;23;20051;-79
2023/08/27 09:21:21;;;;;;;5.68;5.00;;;22.40;99.90;;;;;;6158830;23;20063;-79
2023/08/27 09:23:47;;;;;;;6.13;5.50;;;22.50;99.90;;;;;;6184110;23;20092;-77
2023/08/27 09:26:14;;;;;;;5.38;4.68;;;22.60;99.90;;;;;;6157679;23;20048;-80
2023/08/27 09:28:40;;;;;;;7.88;5.03;;;22.70;99.90;;;;;;6157310;23;20461;-79
2023/08/27 09:31:09;;;;;;;7.47;4.90;;;22.90;99.90;;;;;;6183649;23;20013;-79
2023/08/27 09:33:41;;;;;;;4.70;4.30;;;23.00;99.90;;;;;;6134737;23;20036;-79
2023/08/27 09:36:08;;;;;;;6.10;4.72;;;22.60;99.90;;;;;;6158885;23;20015;-80
2023/08/27 09:38:49;;;;;;;7.53;4.85;;;22.30;99.90;;;;;;6185281;23;20028;-78
2023/08/27 09:41:41;;;;;;;5.32;4.78;;;22.20;99.90;;;;;;6137638;23;20473;-79
2023/08/27 09:47:49;;;;;;;5.15;4.65;;;22.00;99.90;;;;;;6162516;23;20024;-79
2023/08/27 09:51:09;;;;;;;6.35;5.30;;;21.80;99.90;;;;;;6129429;23;20017;-78
2023/08/27 09:53:36;;;;;;;;;;;21.60;99.90;;;;;;6136056;23;20075;-79
2023/08/27 09:59:45;;;;;;;7.22;6.18;;;20.80;99.90;;;;;;6090372;23;20077;-78
2023/08/27 10:02:21;;;;;;;7.85;6.90;;;21.00;99.90;;;;;;6163110;23;20345;-78
2023/08/27 10:04:56;;;;;;;6.90;5.50;;;21.10;99.90;;;;;;6147646;23;20016;-78
2023/08/27 10:07:23;;;;;;;6.07;4.65;;;21.00;99.90;;;;;;6164200;23;20013;-78
2023/08/27 10:10:06;;;;;;;6.45;5.85;;;20.70;99.90;;;;;;6136957;23;20017;-80
2023/08/27 10:12:35;;;;;;;6.22;5.63;;;20.50;99.90;;;;;;6139513;23;20019;-78
2023/08/27 10:15:03;;;;;;;5.63;5.13;;;20.40;99.90;;;;;;6144511;23;20075;-78
2023/08/27 10:17:34;;;;;;;7.53;6.82;;;20.40;99.90;;;;;;6145891;23;20517;-78
2023/08/27 10:20:01;;;;;;;10.18;6.07;;;20.30;99.90;;;;;;6137089;23;20104;-78
2023/08/27 10:22:28;;;;;;;7.05;6.35;;;20.20;99.90;;;;;;6134955;23;20016;-78
2023/08/27 10:25:07;;;;;;;7.80;7.00;;;20.00;99.90;;;;;;6134243;23;20013;-76
2023/08/27 10:28:15;;;;;;;;;;;;;;;;;;;;;
2023/08/27 10:31:10;;;;;;;8.00;6.40;;;19.50;99.90;;;;;;6156796;23;20476;-77
2023/08/27 10:34:23;;;;;;;7.65;6.57;;;19.40;99.90;;;;;;6171011;23;20013;-77
2023/08/27 10:37:17;;;;;;;8.35;7.45;;;19.40;99.90;;;;;;6138312;23;20028;-77
2023/08/27 10:39:49;;;;;;;7.25;6.55;;;19.30;99.90;;;;;;6135708;23;20056;-76
2023/08/27 10:42:34;;;;;;;7.40;6.63;;;19.40;99.90;;;;;;6136642;23;20035;-81
2023/08/27 10:45:20;;;;;;;8.70;7.90;;;19.40;99.90;;;;;;6136997;23;20009;-80
2023/08/27 10:48:07;;;;;;;7.72;6.20;;;19.30;99.90;;;;;;6137054;23;20017;-81
2023/08/27 10:51:11;;;;;;;8.10;6.40;;;19.20;99.90;;;;;;6137262;23;20053;-81
2023/08/27 10:53:55;;;;;;;;;;;19.10;99.90;;;;;;6137467;23;20025;-81
2023/08/27 10:56:37;;;;;;;8.00;7.20;;;19.00;99.90;;;;;;6137745;23;19912;-80
2023/08/27 10:59:09;;;;;;;7.93;7.22;;;18.90;99.90;;;;;;6135555;23;20017;-81
2023/08/27 11:01:58;;;;;;;8.48;7.57;;;18.80;99.90;;;;;;6137180;23;20017;-82
2023/08/27 11:04:38;;;;;;;9.40;7.68;;;18.70;99.90;;;;;;6137110;23;20017;-81
2023/08/27 11:07:40;;;;;;;10.30;9.30;;;18.50;99.90;;;;;;6136326;23;20055;-81
2023/08/27 11:10:31;;;;;;;10.77;9.80;;;18.40;99.90;;;;;;6121187;23;20017;-78
2023/08/27 11:13:34;;;;;;;13.07;11.00;;;18.40;99.90;;;;;;6133063;23;20023;-78
2023/08/27 11:16:26;;;;;;;;;;;;;;;;;;;;;
2023/08/27 11:19:17;;;;;;;12.27;10.88;;;18.40;99.90;;;;;;6157361;23;20014;-78
2023/08/27 11:33:40;;;;;;;;;;;;;;;;;;;;;
2023/08/27 11:58:22;;;;;;;;;;;;;;;;;;;;;
2023/08/27 12:05:46;;;;;;;;;;;;;;;;;;;;;
2023/08/27 12:13:06;;;;;;;6.03;4.70;;;17.70;99.90;;;;;;6032475;23;20485;-79
2023/08/27 12:15:41;;;;;;;4.25;3.85;;;17.60;99.90;;;;;;5944475;23;20039;-79
2023/08/27 12:18:08;;;;;;;4.43;3.80;;;17.40;99.90;;;;;;6012040;23;20019;-78
2023/08/27 12:20:37;;;;;;;4.72;3.60;;;17.40;99.90;;;;;;6070170;23;20010;-78
2023/08/27 12:23:12;;;;;;;8.20;4.90;;;17.30;99.90;;;;;;6122793;23;20014;-79
2023/08/27 12:25:49;;;;;;;5.60;5.07;;;17.20;99.90;;;;;;6124044;23;20042;-78
2023/08/27 12:28:16;;;;;;;4.20;3.80;;;17.30;99.90;;;;;;6099993;23;20025;-79
2023/08/27 12:30:52;;;;;;;7.43;6.10;;;17.30;99.90;;;;;;6099032;23;20022;-79
2023/08/27 12:33:18;;;;;;;5.93;5.43;;;17.30;99.90;;;;;;6124107;23;20014;-78
2023/08/27 12:35:45;;;;;;;5.28;4.78;;;17.40;99.90;;;;;;6099055;23;20038;-78
2023/08/27 12:38:11;;;;;;;8.43;7.63;;;17.40;99.90;;;;;;6123391;23;20105;-78
2023/08/27 12:40:37;;;;;;;6.20;4.90;;;17.50;99.90;;;;;;6123574;23;20037;-78
2023/08/27 12:43:03;;;;;;;7.95;6.40;;;17.50;99.90;;;;;;6098764;23;20411;-80
2023/08/27 12:45:29;;;;;;;8.07;7.38;;;17.50;99.90;;;;;;6100764;23;20016;-80
2023/08/27 12:47:54;;;;;;;9.32;6.57;;;17.60;99.90;;;;;;6099958;23;20382;-80
2023/08/27 12:50:20;;;;;;;7.15;6.45;;;17.60;99.90;;;;;;6102168;23;20014;-80
2023/08/27 12:52:47;;;;;;;7.30;6.63;;;17.60;99.90;;;;;;6101328;23;20018;-80
2023/08/27 12:55:14;;;;;;;7.90;7.30;;;17.60;99.90;;;;;;6126808;23;20014;-80
2023/08/27 12:57:40;;;;;;;10.98;9.93;;;17.60;99.90;;;;;;6125036;23;20081;-79
2023/08/27 13:00:08;;;;;;;12.68;11.70;;;17.50;99.90;;;;;;6125304;23;20459;-80
2023/08/27 13:02:34;;;;;;;13.55;12.45;;;17.50;99.90;;;;;;6126140;23;20041;-79
2023/08/27 13:05:00;;;;;;;13.05;11.98;;;17.60;99.90;;;;;;6099549;23;20052;-78
2023/08/27 13:07:25;;;;;;;13.52;12.50;;;17.70;99.90;;;;;;6126112;23;20048;-79
2023/08/27 13:09:51;;;;;;;11.82;10.93;;;17.70;99.90;;;;;;6125762;23;20025;-80
2023/08/27 13:12:17;;;;;;;12.75;11.75;;;17.80;99.90;;;;;;6124760;23;20459;-81
2023/08/27 13:14:43;;;;;;;10.55;9.75;;;17.90;99.90;;;;;;6100451;23;20025;-82
2023/08/27 13:17:09;;;;;;;12.35;11.35;;;18.00;99.90;;;;;;6127353;23;20013;-79
2023/08/27 13:19:35;;;;;;;10.32;9.52;;;18.20;99.90;;;;;;6125595;23;20013;-80
2023/08/27 13:22:01;;;;;;;7.70;7.10;;;18.50;99.90;;;;;;6123753;23;20014;-79
2023/08/27 13:24:27;;;;;;;7.40;6.40;;;19.40;99.90;;;;;;6100547;23;20096;-79
2023/08/27 13:26:53;;;;;;;8.13;7.43;;;20.30;99.90;;;;;;6125881;23;20045;-79
2023/08/27 13:29:18;;;;;;;8.60;8.00;;;20.70;99.90;;;;;;6100713;23;20013;-79
2023/08/27 13:31:45;;;;;;;7.95;7.18;;;20.70;99.90;;;;;;6124331;23;20014;-79
2023/08/27 13:34:11;;;;;;;7.68;7.13;;;20.40;99.90;;;;;;6124947;23;20013;-79
2023/08/27 13:36:37;;;;;;;6.50;6.00;;;20.20;99.90;;;;;;6101810;23;20018;-80
2023/08/27 13:39:03;;;;;;;5.78;5.20;;;19.80;99.90;;;;;;6123630;23;20014;-78
2023/08/27 13:41:35;;;;;;;6.50;5.57;;;19.50;99.90;;;;;;6121975;23;20036;-77